sensor_id;sensor_type;location;lat;lon;timestamp;pressure;altitude;pressure_sealevel;temperature;humidity
21236;BME280;10775;42.678;26.324;2023-10-31T00:00:54;98889.19;;;15.07;94.04
21236;BME280;10775;42.678;26.324;2023-10-31T00:03:20;98882.13;;;15.09;94.07
21236;BME280;10775;42.678;26.324;2023-10-31T00:05:45;98888.28;;;15.08;93.24
21236;BME280;10775;42.678;26.324;2023-10-31T00:08:11;98876.25;;;15.01;93.61
21236;BME280;10775;42.678;26.324;2023-10-31T00:10:36;98881.59;;;14.98;94.18
21236;BME280;10775;42.678;26.324;2023-10-31T00:13:02;98873.94;;;14.92;93.86
21236;BME280;10775;42.678;26.324;2023-10-31T00:15:27;98870.59;;;14.87;94.19
21236;BME280;10775;42.678;26.324;2023-10-31T00:17:54;98868.78;;;14.89;94.48
21236;BME280;10775;42.678;26.324;2023-10-31T00:20:19;98868.78;;;14.89;94.76
21236;BME280;10775;42.678;26.324;2023-10-31T00:22:45;98867.75;;;14.93;94.83
21236;BME280;10775;42.678;26.324;2023-10-31T00:25:11;98868.56;;;14.95;94.68
21236;BME280;10775;42.678;26.324;2023-10-31T00:27:36;98860.47;;;15.01;94.21
21236;BME280;10775;42.678;26.324;2023-10-31T00:30:02;98862.13;;;15.04;93.68
21236;BME280;10775;42.678;26.324;2023-10-31T00:32:28;98857.72;;;15.04;93.75
21236;BME280;10775;42.678;26.324;2023-10-31T00:34:54;98848.03;;;15.05;93.91
21236;BME280;10775;42.678;26.324;2023-10-31T00:37:19;98843.84;;;14.99;93.41
21236;BME280;10775;42.678;26.324;2023-10-31T00:39:44;98839.94;;;14.86;92.52
21236;BME280;10775;42.678;26.324;2023-10-31T00:42:10;98834.94;;;14.78;92.67
21236;BME280;10775;42.678;26.324;2023-10-31T00:44:35;98839.25;;;14.81;92.87
21236;BME280;10775;42.678;26.324;2023-10-31T00:47:01;98840.41;;;14.72;92.73
21236;BME280;10775;42.678;26.324;2023-10-31T00:49:27;98835.25;;;14.69;92.92
21236;BME280;10775;42.678;26.324;2023-10-31T00:51:52;98836.25;;;14.65;93.24
21236;BME280;10775;42.678;26.324;2023-10-31T00:54:17;98828.47;;;14.62;92.62
21236;BME280;10775;42.678;26.324;2023-10-31T00:56:43;98836.25;;;14.65;93.79
21236;BME280;10775;42.678;26.324;2023-10-31T00:59:08;98834.50;;;14.65;92.23
21236;BME280;10775;42.678;26.324;2023-10-31T01:01:34;98831.06;;;14.63;93.11
21236;BME280;10775;42.678;26.324;2023-10-31T01:03:59;98837.06;;;14.67;93.69
21236;BME280;10775;42.678;26.324;2023-10-31T01:06:24;98829.41;;;14.61;92.34
21236;BME280;10775;42.678;26.324;2023-10-31T01:08:50;98826.69;;;14.62;92.05
21236;BME280;10775;42.678;26.324;2023-10-31T01:11:15;98821.50;;;14.61;92.58
21236;BME280;10775;42.678;26.324;2023-10-31T01:13:41;98825.13;;;14.56;92.03
21236;BME280;10775;42.678;26.324;2023-10-31T01:16:06;98824.38;;;14.53;92.06
21236;BME280;10775;42.678;26.324;2023-10-31T01:18:32;98825.09;;;14.58;92.79
21236;BME280;10775;42.678;26.324;2023-10-31T01:20:57;98817.19;;;14.58;91.57
21236;BME280;10775;42.678;26.324;2023-10-31T01:23:23;98820.66;;;14.60;93.09
21236;BME280;10775;42.678;26.324;2023-10-31T01:25:48;98817.69;;;14.69;94.79
21236;BME280;10775;42.678;26.324;2023-10-31T01:28:14;98816.56;;;14.76;93.76
21236;BME280;10775;42.678;26.324;2023-10-31T01:30:39;98814.03;;;14.73;90.95
21236;BME280;10775;42.678;26.324;2023-10-31T01:33:04;98816.69;;;14.73;91.34
21236;BME280;10775;42.678;26.324;2023-10-31T01:35:30;98811.56;;;14.69;91.66
21236;BME280;10775;42.678;26.324;2023-10-31T01:37:55;98817.56;;;14.72;90.99
21236;BME280;10775;42.678;26.324;2023-10-31T01:40:21;98810.38;;;14.77;90.23
21236;BME280;10775;42.678;26.324;2023-10-31T01:42:46;98807.53;;;14.84;91.34
21236;BME280;10775;42.678;26.324;2023-10-31T01:45:12;98803.84;;;14.89;91.16
21236;BME280;10775;42.678;26.324;2023-10-31T01:47:37;98809.94;;;14.90;90.89
21236;BME280;10775;42.678;26.324;2023-10-31T01:50:03;98811.03;;;14.84;90.63
21236;BME280;10775;42.678;26.324;2023-10-31T01:52:29;98806.00;;;14.78;91.51
21236;BME280;10775;42.678;26.324;2023-10-31T01:54:58;98790.56;;;14.67;90.91
21236;BME280;10775;42.678;26.324;2023-10-31T01:57:23;98800.13;;;14.70;91.94
21236;BME280;10775;42.678;26.324;2023-10-31T01:59:49;98786.22;;;14.66;92.12
21236;BME280;10775;42.678;26.324;2023-10-31T02:02:15;98797.13;;;14.55;89.95
21236;BME280;10775;42.678;26.324;2023-10-31T02:04:41;98786.75;;;14.49;91.84
21236;BME280;10775;42.678;26.324;2023-10-31T02:07:07;98774.41;;;14.51;93.71
21236;BME280;10775;42.678;26.324;2023-10-31T02:09:33;98782.31;;;14.53;92.04
21236;BME280;10775;42.678;26.324;2023-10-31T02:11:59;98793.78;;;14.49;90.82
21236;BME280;10775;42.678;26.324;2023-10-31T02:14:24;98789.50;;;14.46;92.18
21236;BME280;10775;42.678;26.324;2023-10-31T02:16:50;98787.44;;;14.56;92.97
21236;BME280;10775;42.678;26.324;2023-10-31T02:19:19;98777.19;;;14.47;92.34
21236;BME280;10775;42.678;26.324;2023-10-31T02:21:44;98779.66;;;14.53;92.20
21236;BME280;10775;42.678;26.324;2023-10-31T02:24:10;98783.16;;;14.52;89.94
21236;BME280;10775;42.678;26.324;2023-10-31T02:26:35;98786.72;;;14.51;91.22
21236;BME280;10775;42.678;26.324;2023-10-31T02:29:02;98779.13;;;14.42;91.43
21236;BME280;10775;42.678;26.324;2023-10-31T02:31:28;98782.63;;;14.42;89.16
21236;BME280;10775;42.678;26.324;2023-10-31T02:33:54;98778.38;;;14.38;88.34
21236;BME280;10775;42.678;26.324;2023-10-31T02:36:20;98781.72;;;14.43;90.35
21236;BME280;10775;42.678;26.324;2023-10-31T02:38:45;98788.75;;;14.43;90.17
21236;BME280;10775;42.678;26.324;2023-10-31T02:41:11;98777.53;;;14.38;90.87
21236;BME280;10775;42.678;26.324;2023-10-31T02:43:38;98772.38;;;14.34;89.63
21236;BME280;10775;42.678;26.324;2023-10-31T02:46:04;98782.09;;;14.32;88.87
21236;BME280;10775;42.678;26.324;2023-10-31T02:48:29;98779.63;;;14.26;88.61
21236;BME280;10775;42.678;26.324;2023-10-31T02:50:57;98782.22;;;14.28;90.40
21236;BME280;10775;42.678;26.324;2023-10-31T02:53:23;98777.53;;;14.38;92.47
21236;BME280;10775;42.678;26.324;2023-10-31T02:55:48;98777.53;;;14.38;93.50
21236;BME280;10775;42.678;26.324;2023-10-31T02:58:14;98790.34;;;14.47;93.59
21236;BME280;10775;42.678;26.324;2023-10-31T03:00:39;98787.72;;;14.47;92.86
21236;BME280;10775;42.678;26.324;2023-10-31T03:03:05;98783.91;;;14.30;87.56
21236;BME280;10775;42.678;26.324;2023-10-31T03:05:30;98790.78;;;14.08;88.20
21236;BME280;10775;42.678;26.324;2023-10-31T03:07:55;98789.88;;;14.09;91.67
21236;BME280;10775;42.678;26.324;2023-10-31T03:10:21;98796.22;;;14.02;91.15
21236;BME280;10775;42.678;26.324;2023-10-31T03:12:47;98798.78;;;14.03;93.67
21236;BME280;10775;42.678;26.324;2023-10-31T03:15:12;98795.41;;;14.00;94.36
21236;BME280;10775;42.678;26.324;2023-10-31T03:17:38;98798.56;;;13.83;95.16
21236;BME280;10775;42.678;26.324;2023-10-31T03:20:04;98792.53;;;13.81;96.03
21236;BME280;10775;42.678;26.324;2023-10-31T03:22:29;98795.09;;;13.82;96.81
21236;BME280;10775;42.678;26.324;2023-10-31T03:24:55;98794.97;;;13.85;97.25
21236;BME280;10775;42.678;26.324;2023-10-31T03:27:20;98784.41;;;13.88;97.34
21236;BME280;10775;42.678;26.324;2023-10-31T03:29:46;98782.63;;;13.89;96.82
21236;BME280;10775;42.678;26.324;2023-10-31T03:32:12;98789.56;;;13.91;97.10
21236;BME280;10775;42.678;26.324;2023-10-31T03:34:37;98789.56;;;13.91;97.46
21236;BME280;10775;42.678;26.324;2023-10-31T03:37:04;98784.41;;;13.88;97.38
21236;BME280;10775;42.678;26.324;2023-10-31T03:39:29;98780.81;;;13.91;97.54
21236;BME280;10775;42.678;26.324;2023-10-31T03:41:55;98781.56;;;13.95;97.65
21236;BME280;10775;42.678;26.324;2023-10-31T03:44:20;98777.94;;;13.99;96.86
21236;BME280;10775;42.678;26.324;2023-10-31T03:46:46;98779.03;;;13.91;96.33
21236;BME280;10775;42.678;26.324;2023-10-31T03:49:11;98777.22;;;13.94;97.00
21236;BME280;10775;42.678;26.324;2023-10-31T03:51:37;98779.91;;;13.92;96.69
21236;BME280;10775;42.678;26.324;2023-10-31T03:54:02;98774.97;;;13.81;95.64
21236;BME280;10775;42.678;26.324;2023-10-31T03:56:28;98771.97;;;13.65;91.92
21236;BME280;10775;42.678;26.324;2023-10-31T03:58:53;98775.47;;;13.36;95.03
21236;BME280;10775;42.678;26.324;2023-10-31T04:01:19;98782.16;;;13.46;97.56
21236;BME280;10775;42.678;26.324;2023-10-31T04:03:44;98786.47;;;13.49;98.28
21236;BME280;10775;42.678;26.324;2023-10-31T04:06:09;98784.28;;;13.35;96.83
21236;BME280;10775;42.678;26.324;2023-10-31T04:08:35;98784.94;;;13.42;98.17
21236;BME280;10775;42.678;26.324;2023-10-31T04:11:00;98782.06;;;13.49;99.35
21236;BME280;10775;42.678;26.324;2023-10-31T04:13:26;98778.44;;;13.55;99.23
21236;BME280;10775;42.678;26.324;2023-10-31T04:15:51;98772.25;;;13.56;98.36
21236;BME280;10775;42.678;26.324;2023-10-31T04:18:17;98776.66;;;13.56;98.26
21236;BME280;10775;42.678;26.324;2023-10-31T04:20:42;98769.75;;;13.52;98.61
21236;BME280;10775;42.678;26.324;2023-10-31T04:23:08;98768.78;;;13.56;99.23
21236;BME280;10775;42.678;26.324;2023-10-31T04:25:33;98758.25;;;13.56;98.95
21236;BME280;10775;42.678;26.324;2023-10-31T04:27:59;98759.97;;;13.57;98.74
21236;BME280;10775;42.678;26.324;2023-10-31T04:30:25;98766.78;;;13.62;96.63
21236;BME280;10775;42.678;26.324;2023-10-31T04:32:51;98761.03;;;13.51;94.71
21236;BME280;10775;42.678;26.324;2023-10-31T04:35:17;98753.13;;;13.53;98.01
21236;BME280;10775;42.678;26.324;2023-10-31T04:37:42;98756.28;;;13.34;92.00
21236;BME280;10775;42.678;26.324;2023-10-31T04:40:08;98760.78;;;13.31;95.37
21236;BME280;10775;42.678;26.324;2023-10-31T04:42:34;98766.13;;;13.27;93.18
21236;BME280;10775;42.678;26.324;2023-10-31T04:45:00;98768.16;;;13.16;94.15
21236;BME280;10775;42.678;26.324;2023-10-31T04:47:25;98764.97;;;13.05;94.29
21236;BME280;10775;42.678;26.324;2023-10-31T04:49:50;98764.28;;;12.98;92.59
21236;BME280;10775;42.678;26.324;2023-10-31T04:52:17;98774.75;;;13.00;93.27
21236;BME280;10775;42.678;26.324;2023-10-31T04:54:42;98779.09;;;13.01;92.74
21236;BME280;10775;42.678;26.324;2023-10-31T04:57:08;98781.88;;;12.96;93.49
21236;BME280;10775;42.678;26.324;2023-10-31T04:59:34;98783.38;;;13.03;95.52
21236;BME280;10775;42.678;26.324;2023-10-31T05:01:59;98789.34;;;13.10;96.50
21236;BME280;10775;42.678;26.324;2023-10-31T05:04:24;98790.97;;;13.14;94.17
21236;BME280;10775;42.678;26.324;2023-10-31T05:06:50;98790.09;;;13.14;95.35
21236;BME280;10775;42.678;26.324;2023-10-31T05:09:15;98794.59;;;13.09;93.72
21236;BME280;10775;42.678;26.324;2023-10-31T05:11:41;98792.25;;;12.99;96.11
21236;BME280;10775;42.678;26.324;2023-10-31T05:14:09;98787.78;;;13.03;95.31
21236;BME280;10775;42.678;26.324;2023-10-31T05:16:43;98789.44;;;13.07;97.45
21236;BME280;10775;42.678;26.324;2023-10-31T05:19:10;98790.81;;;13.19;99.81
21236;BME280;10775;42.678;26.324;2023-10-31T05:21:36;98783.66;;;13.24;97.10
21236;BME280;10775;42.678;26.324;2023-10-31T05:24:01;98787.06;;;13.29;97.39
21236;BME280;10775;42.678;26.324;2023-10-31T05:26:27;98781.59;;;13.37;97.95
21236;BME280;10775;42.678;26.324;2023-10-31T05:28:55;98788.59;;;13.36;94.71
21236;BME280;10775;42.678;26.324;2023-10-31T05:31:20;98786.06;;;13.33;93.98
21236;BME280;10775;42.678;26.324;2023-10-31T05:33:45;98784.44;;;13.29;93.21
21236;BME280;10775;42.678;26.324;2023-10-31T05:36:21;98780.09;;;13.28;95.16
21236;BME280;10775;42.678;26.324;2023-10-31T05:38:47;98784.13;;;13.40;97.89
21236;BME280;10775;42.678;26.324;2023-10-31T05:41:13;98777.78;;;13.47;95.87
21236;BME280;10775;42.678;26.324;2023-10-31T05:43:39;98780.25;;;13.52;94.98
21236;BME280;10775;42.678;26.324;2023-10-31T05:46:05;98783.91;;;13.47;91.02
21236;BME280;10775;42.678;26.324;2023-10-31T05:48:31;98789.22;;;13.44;92.99
21236;BME280;10775;42.678;26.324;2023-10-31T05:50:57;98783.94;;;13.46;93.29
21236;BME280;10775;42.678;26.324;2023-10-31T05:53:22;98789.53;;;13.35;90.70
21236;BME280;10775;42.678;26.324;2023-10-31T05:55:48;98798.03;;;13.43;92.29
21236;BME280;10775;42.678;26.324;2023-10-31T05:58:13;98788.88;;;13.57;93.15
21236;BME280;10775;42.678;26.324;2023-10-31T06:00:39;98788.59;;;13.66;91.73
21236;BME280;10775;42.678;26.324;2023-10-31T06:03:04;98795.22;;;13.78;89.79
21236;BME280;10775;42.678;26.324;2023-10-31T06:05:30;98795.44;;;13.98;92.78
21236;BME280;10775;42.678;26.324;2023-10-31T06:07:55;98793.06;;;13.90;91.84
21236;BME280;10775;42.678;26.324;2023-10-31T06:10:21;98802.72;;;13.90;91.16
21236;BME280;10775;42.678;26.324;2023-10-31T06:12:47;98799.72;;;14.02;92.48
21236;BME280;10775;42.678;26.324;2023-10-31T06:15:12;98793.41;;;14.08;93.01
21236;BME280;10775;42.678;26.324;2023-10-31T06:17:37;98802.59;;;14.21;93.47
21236;BME280;10775;42.678;26.324;2023-10-31T06:20:03;98798.81;;;14.30;88.90
21236;BME280;10775;42.678;26.324;2023-10-31T06:22:29;98796.38;;;14.50;85.77
21236;BME280;10775;42.678;26.324;2023-10-31T06:24:54;98796.28;;;14.55;83.36
21236;BME280;10775;42.678;26.324;2023-10-31T06:27:20;98798.69;;;14.61;86.91
21236;BME280;10775;42.678;26.324;2023-10-31T06:29:45;98791.19;;;14.75;89.04
21236;BME280;10775;42.678;26.324;2023-10-31T06:32:10;98796.47;;;14.74;86.82
21236;BME280;10775;42.678;26.324;2023-10-31T06:34:36;98789.16;;;14.82;88.91
21236;BME280;10775;42.678;26.324;2023-10-31T06:37:01;98795.81;;;14.92;87.42
21236;BME280;10775;42.678;26.324;2023-10-31T06:39:27;98789.28;;;15.04;84.15
21236;BME280;10775;42.678;26.324;2023-10-31T06:41:56;98786.28;;;15.13;83.12
21236;BME280;10775;42.678;26.324;2023-10-31T06:44:21;98784.84;;;15.28;83.96
21236;BME280;10775;42.678;26.324;2023-10-31T06:46:47;98790.19;;;15.27;83.42
21236;BME280;10775;42.678;26.324;2023-10-31T06:49:12;98790.88;;;15.32;83.89
21236;BME280;10775;42.678;26.324;2023-10-31T06:51:38;98788.53;;;15.48;83.41
21236;BME280;10775;42.678;26.324;2023-10-31T06:54:03;98781.75;;;15.64;82.21
21236;BME280;10775;42.678;26.324;2023-10-31T06:56:29;98786.84;;;15.69;83.01
21236;BME280;10775;42.678;26.324;2023-10-31T06:58:54;98791.97;;;15.73;81.96
21236;BME280;10775;42.678;26.324;2023-10-31T07:01:20;98786.75;;;15.72;82.06
21236;BME280;10775;42.678;26.324;2023-10-31T07:03:48;98788.47;;;15.73;82.85
21236;BME280;10775;42.678;26.324;2023-10-31T07:06:13;98787.41;;;15.77;83.15
21236;BME280;10775;42.678;26.324;2023-10-31T07:08:39;98790.69;;;15.83;82.80
21236;BME280;10775;42.678;26.324;2023-10-31T07:11:04;98790.56;;;15.86;82.86
21236;BME280;10775;42.678;26.324;2023-10-31T07:13:31;98783.41;;;15.90;82.31
21236;BME280;10775;42.678;26.324;2023-10-31T07:15:56;98784.84;;;15.97;81.51
21236;BME280;10775;42.678;26.324;2023-10-31T07:18:22;98792.00;;;15.95;80.77
21236;BME280;10775;42.678;26.324;2023-10-31T07:20:47;98793.66;;;15.98;81.99
21236;BME280;10775;42.678;26.324;2023-10-31T07:23:13;98790.56;;;16.08;81.79
21236;BME280;10775;42.678;26.324;2023-10-31T07:25:38;98795.66;;;16.13;82.09
21236;BME280;10775;42.678;26.324;2023-10-31T07:28:04;98790.75;;;16.26;82.74
21236;BME280;10775;42.678;26.324;2023-10-31T07:30:29;98790.53;;;17.12;80.46
21236;BME280;10775;42.678;26.324;2023-10-31T07:32:55;98785.00;;;17.94;76.37
21236;BME280;10775;42.678;26.324;2023-10-31T07:35:20;98783.25;;;18.12;75.72
21236;BME280;10775;42.678;26.324;2023-10-31T07:37:46;98797.00;;;18.55;74.58
21236;BME280;10775;42.678;26.324;2023-10-31T07:40:11;98789.41;;;19.17;71.62
21236;BME280;10775;42.678;26.324;2023-10-31T07:42:37;98789.00;;;19.90;69.10
21236;BME280;10775;42.678;26.324;2023-10-31T07:45:03;98776.44;;;20.24;67.31
21236;BME280;10775;42.678;26.324;2023-10-31T07:47:28;98789.69;;;20.39;66.29
21236;BME280;10775;42.678;26.324;2023-10-31T07:49:54;98789.22;;;20.47;65.13
21236;BME280;10775;42.678;26.324;2023-10-31T07:52:19;98786.16;;;20.55;65.64
21236;BME280;10775;42.678;26.324;2023-10-31T07:54:45;98787.72;;;20.43;65.29
21236;BME280;10775;42.678;26.324;2023-10-31T07:57:10;98787.28;;;20.51;65.50
21236;BME280;10775;42.678;26.324;2023-10-31T07:59:36;98781.38;;;20.30;66.17
21236;BME280;10775;42.678;26.324;2023-10-31T08:02:01;98775.28;;;20.59;65.07
21236;BME280;10775;42.678;26.324;2023-10-31T08:04:28;98768.19;;;20.89;64.04
21236;BME280;10775;42.678;26.324;2023-10-31T08:06:55;98761.91;;;20.75;63.71
21236;BME280;10775;42.678;26.324;2023-10-31T08:09:20;98760.41;;;20.71;64.36
21236;BME280;10775;42.678;26.324;2023-10-31T08:11:46;98761.91;;;20.75;64.30
21236;BME280;10775;42.678;26.324;2023-10-31T08:14:11;98752.09;;;20.92;63.41
21236;BME280;10775;42.678;26.324;2023-10-31T08:16:37;98759.56;;;20.85;63.60
21236;BME280;10775;42.678;26.324;2023-10-31T08:19:02;98751.88;;;21.23;62.65
21236;BME280;10775;42.678;26.324;2023-10-31T08:21:28;98754.47;;;21.25;62.42
21236;BME280;10775;42.678;26.324;2023-10-31T08:24:01;98756.34;;;21.23;62.34
21236;BME280;10775;42.678;26.324;2023-10-31T08:26:27;98760.16;;;21.19;62.15
21236;BME280;10775;42.678;26.324;2023-10-31T08:28:52;98759.19;;;21.05;62.94
21236;BME280;10775;42.678;26.324;2023-10-31T08:31:18;98756.25;;;20.96;62.85
21236;BME280;10775;42.678;26.324;2023-10-31T08:33:44;98756.22;;;20.67;64.09
21236;BME280;10775;42.678;26.324;2023-10-31T08:36:10;98748.16;;;20.08;66.12
21236;BME280;10775;42.678;26.324;2023-10-31T08:38:35;98749.66;;;20.42;65.45
21236;BME280;10775;42.678;26.324;2023-10-31T08:41:01;98752.56;;;20.98;63.78
21236;BME280;10775;42.678;26.324;2023-10-31T08:43:26;98747.22;;;20.98;62.65
21236;BME280;10775;42.678;26.324;2023-10-31T08:45:52;98744.47;;;20.71;64.03
21236;BME280;10775;42.678;26.324;2023-10-31T08:48:17;98748.31;;;21.24;62.95
21236;BME280;10775;42.678;26.324;2023-10-31T08:50:43;98748.50;;;21.07;62.04
21236;BME280;10775;42.678;26.324;2023-10-31T08:53:08;98747.25;;;21.13;63.39
21236;BME280;10775;42.678;26.324;2023-10-31T08:55:33;98742.97;;;21.24;62.69
21236;BME280;10775;42.678;26.324;2023-10-31T08:57:59;98736.53;;;21.14;63.32
21236;BME280;10775;42.678;26.324;2023-10-31T09:00:24;98740.88;;;21.30;62.91
21236;BME280;10775;42.678;26.324;2023-10-31T09:02:51;98735.00;;;21.10;63.53
21236;BME280;10775;42.678;26.324;2023-10-31T09:05:17;98735.94;;;20.95;63.45
21236;BME280;10775;42.678;26.324;2023-10-31T09:07:42;98729.47;;;21.42;62.99
21236;BME280;10775;42.678;26.324;2023-10-31T09:10:08;98731.16;;;21.71;61.82
21236;BME280;10775;42.678;26.324;2023-10-31T09:12:34;98735.22;;;21.77;60.60
21236;BME280;10775;42.678;26.324;2023-10-31T09:14:59;98736.41;;;21.44;61.25
21236;BME280;10775;42.678;26.324;2023-10-31T09:17:25;98724.66;;;20.77;63.97
21236;BME280;10775;42.678;26.324;2023-10-31T09:19:50;98720.56;;;21.28;62.83
21236;BME280;10775;42.678;26.324;2023-10-31T09:22:15;98727.22;;;21.50;62.10
21236;BME280;10775;42.678;26.324;2023-10-31T09:24:41;98718.59;;;21.74;61.21
21236;BME280;10775;42.678;26.324;2023-10-31T09:27:07;98716.41;;;21.93;60.79
21236;BME280;10775;42.678;26.324;2023-10-31T09:29:33;98712.66;;;21.83;60.45
21236;BME280;10775;42.678;26.324;2023-10-31T09:31:58;98711.00;;;21.40;61.75
21236;BME280;10775;42.678;26.324;2023-10-31T09:34:24;98696.66;;;21.70;61.94
21236;BME280;10775;42.678;26.324;2023-10-31T09:36:50;98694.69;;;21.86;60.86
21236;BME280;10775;42.678;26.324;2023-10-31T09:39:15;98686.88;;;21.15;61.88
21236;BME280;10775;42.678;26.324;2023-10-31T09:41:40;98677.31;;;20.69;64.39
21236;BME280;10775;42.678;26.324;2023-10-31T09:44:06;98670.00;;;20.58;65.35
21236;BME280;10775;42.678;26.324;2023-10-31T09:46:32;98664.78;;;20.71;65.76
21236;BME280;10775;42.678;26.324;2023-10-31T09:48:57;98656.13;;;21.11;64.51
21236;BME280;10775;42.678;26.324;2023-10-31T09:51:23;98649.53;;;21.45;63.37
21236;BME280;10775;42.678;26.324;2023-10-31T09:53:50;98642.97;;;21.36;62.78
21236;BME280;10775;42.678;26.324;2023-10-31T09:56:19;98643.00;;;21.63;63.28
21236;BME280;10775;42.678;26.324;2023-10-31T09:58:46;98633.19;;;21.91;61.73
21236;BME280;10775;42.678;26.324;2023-10-31T10:01:12;98632.03;;;22.08;61.22
21236;BME280;10775;42.678;26.324;2023-10-31T10:03:38;98624.06;;;22.08;60.63
21236;BME280;10775;42.678;26.324;2023-10-31T10:06:04;98625.97;;;22.06;60.78
21236;BME280;10775;42.678;26.324;2023-10-31T10:08:29;98621.97;;;22.26;60.34
21236;BME280;10775;42.678;26.324;2023-10-31T10:10:55;98617.09;;;22.45;59.77
21236;BME280;10775;42.678;26.324;2023-10-31T10:13:21;98611.53;;;22.48;59.43
21236;BME280;10775;42.678;26.324;2023-10-31T10:15:48;98604.31;;;22.63;59.27
21236;BME280;10775;42.678;26.324;2023-10-31T10:18:33;98598.22;;;22.61;58.56
21236;BME280;10775;42.678;26.324;2023-10-31T10:21:08;98597.78;;;22.67;58.99
21236;BME280;10775;42.678;26.324;2023-10-31T10:23:33;98600.28;;;22.45;58.66
21236;BME280;10775;42.678;26.324;2023-10-31T10:26:00;98594.03;;;22.19;59.90
21236;BME280;10775;42.678;26.324;2023-10-31T10:28:26;98585.44;;;22.41;59.75
21236;BME280;10775;42.678;26.324;2023-10-31T10:30:53;98572.97;;;22.41;59.12
21236;BME280;10775;42.678;26.324;2023-10-31T10:33:22;98572.75;;;22.44;59.20
21236;BME280;10775;42.678;26.324;2023-10-31T10:35:48;98577.47;;;22.41;59.49
21236;BME280;10775;42.678;26.324;2023-10-31T10:38:15;98570.00;;;22.46;59.10
21236;BME280;10775;42.678;26.324;2023-10-31T10:40:46;98573.44;;;22.22;59.52
21236;BME280;10775;42.678;26.324;2023-10-31T10:43:22;98578.50;;;22.12;60.55
21236;BME280;10775;42.678;26.324;2023-10-31T10:45:57;98566.59;;;22.44;59.68
21236;BME280;10775;42.678;26.324;2023-10-31T10:48:25;98570.81;;;22.72;58.56
21236;BME280;10775;42.678;26.324;2023-10-31T10:50:57;98558.22;;;22.74;58.02
21236;BME280;10775;42.678;26.324;2023-10-31T10:53:26;98562.44;;;22.65;58.30
21236;BME280;10775;42.678;26.324;2023-10-31T10:56:00;98545.13;;;22.71;58.66
21236;BME280;10775;42.678;26.324;2023-10-31T10:58:44;98542.19;;;22.63;59.38
21236;BME280;10775;42.678;26.324;2023-10-31T11:01:10;98537.25;;;22.69;58.67
21236;BME280;10775;42.678;26.324;2023-10-31T11:03:37;98537.09;;;22.34;58.98
21236;BME280;10775;42.678;26.324;2023-10-31T11:06:04;98529.28;;;22.18;60.29
21236;BME280;10775;42.678;26.324;2023-10-31T11:08:31;98528.91;;;22.24;59.73
21236;BME280;10775;42.678;26.324;2023-10-31T11:10:57;98528.53;;;21.78;60.71
21236;BME280;10775;42.678;26.324;2023-10-31T11:13:24;98527.16;;;21.85;60.57
21236;BME280;10775;42.678;26.324;2023-10-31T11:15:53;98521.63;;;22.13;60.25
21236;BME280;10775;42.678;26.324;2023-10-31T11:18:20;98507.75;;;22.60;58.86
21236;BME280;10775;42.678;26.324;2023-10-31T11:20:46;98505.88;;;22.98;56.65
21236;BME280;10775;42.678;26.324;2023-10-31T11:23:11;98506.19;;;23.18;56.24
21236;BME280;10775;42.678;26.324;2023-10-31T11:25:42;98500.91;;;23.29;56.01
21236;BME280;10775;42.678;26.324;2023-10-31T11:28:16;98506.53;;;23.37;55.41
21236;BME280;10775;42.678;26.324;2023-10-31T11:30:43;98495.69;;;23.28;55.13
21236;BME280;10775;42.678;26.324;2023-10-31T11:33:20;98494.50;;;23.08;55.48
21236;BME280;10775;42.678;26.324;2023-10-31T11:36:00;98500.75;;;23.19;55.66
21236;BME280;10775;42.678;26.324;2023-10-31T11:38:37;98491.03;;;23.42;55.56
21236;BME280;10775;42.678;26.324;2023-10-31T11:41:03;98486.19;;;23.48;54.49
21236;BME280;10775;42.678;26.324;2023-10-31T11:46:22;98480.47;;;23.41;54.81
21236;BME280;10775;42.678;26.324;2023-10-31T11:48:53;98480.28;;;23.31;54.87
21236;BME280;10775;42.678;26.324;2023-10-31T11:51:22;98479.09;;;23.24;55.83
21236;BME280;10775;42.678;26.324;2023-10-31T11:53:49;98466.84;;;23.33;55.39
21236;BME280;10775;42.678;26.324;2023-10-31T11:56:15;98466.53;;;23.13;55.06
21236;BME280;10775;42.678;26.324;2023-10-31T11:58:41;98463.03;;;23.13;56.00
21236;BME280;10775;42.678;26.324;2023-10-31T12:01:10;98462.03;;;23.38;56.00
21236;BME280;10775;42.678;26.324;2023-10-31T12:03:42;98457.25;;;23.19;55.37
21236;BME280;10775;42.678;26.324;2023-10-31T12:06:09;98460.69;;;23.32;55.56
21236;BME280;10775;42.678;26.324;2023-10-31T12:08:40;98456.34;;;23.42;55.46
21236;BME280;10775;42.678;26.324;2023-10-31T12:11:21;98449.09;;;23.44;55.22
21236;BME280;10775;42.678;26.324;2023-10-31T12:13:56;98439.13;;;23.47;55.59
21236;BME280;10775;42.678;26.324;2023-10-31T12:16:27;98439.25;;;23.45;55.75
21236;BME280;10775;42.678;26.324;2023-10-31T12:19:03;98437.34;;;23.47;55.54
21236;BME280;10775;42.678;26.324;2023-10-31T12:21:46;98423.84;;;23.37;55.03
21236;BME280;10775;42.678;26.324;2023-10-31T12:24:17;98428.28;;;23.26;55.37
21236;BME280;10775;42.678;26.324;2023-10-31T12:26:43;98429.19;;;23.37;55.62
21236;BME280;10775;42.678;26.324;2023-10-31T12:29:13;98423.84;;;23.49;56.17
21236;BME280;10775;42.678;26.324;2023-10-31T12:31:52;98418.06;;;23.55;54.90
21236;BME280;10775;42.678;26.324;2023-10-31T12:34:19;98418.53;;;23.49;55.21
21236;BME280;10775;42.678;26.324;2023-10-31T12:36:47;98416.44;;;23.30;55.43
21236;BME280;10775;42.678;26.324;2023-10-31T12:39:13;98414.88;;;23.38;55.23
21236;BME280;10775;42.678;26.324;2023-10-31T12:41:40;98410.16;;;23.42;56.01
21236;BME280;10775;42.678;26.324;2023-10-31T12:44:07;98406.63;;;23.41;56.28
21236;BME280;10775;42.678;26.324;2023-10-31T12:46:40;98407.78;;;23.26;54.93
21236;BME280;10775;42.678;26.324;2023-10-31T12:49:13;98401.19;;;23.08;55.82